BAW659 LGKF-EGLL
Flight info
| Callsign | BAW659 |
|---|---|
| Flight time | N/A |
| Altitude | 34000 |
| Route | DCT LATAN DCT XOLTA DCT IXONA DCT ROTAR DCT MOBDO/N0447F360 DCT SOTOV DCT KPT L608 KUNOD DCT KRH DCT LIRSU DCT ARCKY DCT BUB L608 LOGAN LOGAN2H |
| Aircraft | A320/M-SDE3FGIJ1KRWXY/SB1 |
Departure
| Time | 2026-05-05 10:48 |
|---|---|
| Airport | Kefallinia Airport (LGKF) |
Arrival
| Time | N/A |
|---|---|
| Airport | London Heathrow Airport (EGLL) |
| Time | Latitude | Longitude | Altitude | Speed | Heading |
|---|---|---|---|---|---|
| 2026-05-05 10:24 | 38.11882 | 20.50412 | 54 ft | 0 kts | 32° |
| 2026-05-05 10:38 | 38.11873 | 20.50406 | 53 ft | 3 kts | 35° |
| 2026-05-05 10:39 | 38.11857 | 20.50389 | 49 ft | 2 kts | 53° |
| 2026-05-05 10:39 | 38.11851 | 20.50376 | 51 ft | 2 kts | 90° |
| 2026-05-05 10:39 | 38.11852 | 20.50362 | 49 ft | 2 kts | 126° |
| 2026-05-05 10:39 | 38.11859 | 20.50351 | 48 ft | 2 kts | 137° |
| 2026-05-05 10:40 | 38.11864 | 20.50345 | 50 ft | 2 kts | 141° |
| 2026-05-05 10:40 | 38.11875 | 20.50334 | 54 ft | 0 kts | 143° |
| 2026-05-05 10:42 | 38.11874 | 20.50335 | 50 ft | 1 kts | 144° |
| 2026-05-05 10:42 | 38.11858 | 20.50349 | 48 ft | 3 kts | 147° |
| 2026-05-05 10:43 | 38.11836 | 20.50366 | 47 ft | 4 kts | 149° |
| 2026-05-05 10:43 | 38.11811 | 20.50368 | 52 ft | 4 kts | 199° |
| 2026-05-05 10:43 | 38.11783 | 20.50349 | 54 ft | 5 kts | 207° |
| 2026-05-05 10:43 | 38.11744 | 20.50327 | 54 ft | 7 kts | 199° |
| 2026-05-05 10:44 | 38.11694 | 20.50319 | 55 ft | 8 kts | 174° |
| 2026-05-05 10:44 | 38.11641 | 20.50354 | 53 ft | 10 kts | 145° |
| 2026-05-05 10:44 | 38.11587 | 20.50402 | 53 ft | 10 kts | 146° |
| 2026-05-05 10:44 | 38.11529 | 20.50451 | 58 ft | 11 kts | 147° |
| 2026-05-05 10:45 | 38.11464 | 20.50504 | 54 ft | 11 kts | 147° |
| 2026-05-05 10:45 | 38.11397 | 20.50559 | 55 ft | 12 kts | 147° |
| 2026-05-05 10:45 | 38.11326 | 20.50616 | 58 ft | 13 kts | 148° |
| 2026-05-05 10:45 | 38.11252 | 20.50679 | 56 ft | 13 kts | 146° |
| 2026-05-05 10:46 | 38.11176 | 20.50743 | 58 ft | 13 kts | 147° |
| 2026-05-05 10:46 | 38.11105 | 20.50792 | 60 ft | 7 kts | 190° |
| 2026-05-05 10:46 | 38.11095 | 20.50799 | 54 ft | 2 kts | 77° |
| 2026-05-05 10:46 | 38.11127 | 20.50788 | 59 ft | 10 kts | 307° |
| 2026-05-05 10:47 | 38.11174 | 20.50747 | 59 ft | 0 kts | 326° |
| 2026-05-05 10:47 | 38.11181 | 20.50740 | 57 ft | 5 kts | 326° |
| 2026-05-05 10:47 | 38.11332 | 20.50614 | 57 ft | 59 kts | 326° |
| 2026-05-05 10:48 | 38.11860 | 20.50169 | 52 ft | 120 kts | 327° |
| 2026-05-05 10:48 | 38.12678 | 20.49478 | 155 ft | 153 kts | 324° |
| 2026-05-05 10:48 | 38.13538 | 20.48717 | 773 ft | 151 kts | 322° |
| 2026-05-05 10:48 | 38.14393 | 20.47936 | 1304 ft | 154 kts | 322° |
| 2026-05-05 10:49 | 38.15325 | 20.47091 | 1429 ft | 176 kts | 322° |
| 2026-05-05 10:49 | 38.16378 | 20.46129 | 1594 ft | 197 kts | 322° |
| 2026-05-05 10:49 | 38.17562 | 20.45045 | 1825 ft | 216 kts | 323° |
| 2026-05-05 10:49 | 38.18793 | 20.43917 | 2579 ft | 216 kts | 323° |
| 2026-05-05 10:50 | 38.20016 | 20.42798 | 3351 ft | 217 kts | 323° |
| 2026-05-05 10:50 | 38.21225 | 20.41689 | 4102 ft | 217 kts | 323° |
| 2026-05-05 10:50 | 38.22484 | 20.40536 | 4718 ft | 224 kts | 323° |
| 2026-05-05 10:50 | 38.23758 | 20.39386 | 5446 ft | 225 kts | 324° |
| 2026-05-05 10:51 | 38.25041 | 20.38229 | 6140 ft | 227 kts | 323° |
| 2026-05-05 10:51 | 38.26230 | 20.36783 | 6475 ft | 250 kts | 306° |
| 2026-05-05 10:51 | 38.27043 | 20.34735 | 6834 ft | 269 kts | 289° |
| 2026-05-05 10:51 | 38.27547 | 20.32411 | 7465 ft | 275 kts | 284° |
| 2026-05-05 10:52 | 38.28124 | 20.30083 | 8191 ft | 277 kts | 297° |
| 2026-05-05 10:52 | 38.29230 | 20.28077 | 8902 ft | 279 kts | 313° |
| 2026-05-05 10:52 | 38.30572 | 20.26288 | 9669 ft | 280 kts | 316° |
| 2026-05-05 10:52 | 38.31970 | 20.24550 | 10396 ft | 282 kts | 317° |
| 2026-05-05 10:53 | 38.33439 | 20.22754 | 10578 ft | 305 kts | 317° |
| 2026-05-05 10:53 | 38.35024 | 20.20825 | 10741 ft | 324 kts | 317° |
| 2026-05-05 10:53 | 38.36681 | 20.18780 | 11052 ft | 337 kts | 316° |
| 2026-05-05 10:53 | 38.38364 | 20.16668 | 11612 ft | 341 kts | 316° |
| 2026-05-05 10:54 | 38.40058 | 20.14525 | 12232 ft | 344 kts | 316° |
| 2026-05-05 10:54 | 38.41753 | 20.12374 | 12863 ft | 345 kts | 316° |
| 2026-05-05 10:54 | 38.43463 | 20.10207 | 13486 ft | 348 kts | 316° |
| 2026-05-05 10:54 | 38.45188 | 20.08024 | 14087 ft | 350 kts | 316° |
| 2026-05-05 10:55 | 38.46923 | 20.05833 | 14622 ft | 352 kts | 316° |
| 2026-05-05 10:55 | 38.48668 | 20.03627 | 15127 ft | 354 kts | 316° |
| 2026-05-05 10:55 | 38.50427 | 20.01407 | 15637 ft | 357 kts | 316° |
| 2026-05-05 10:55 | 38.52197 | 19.99170 | 16136 ft | 359 kts | 316° |
| 2026-05-05 10:56 | 38.53977 | 19.96916 | 16650 ft | 362 kts | 316° |
| 2026-05-05 10:56 | 38.55769 | 19.94647 | 17160 ft | 364 kts | 316° |
| 2026-05-05 10:56 | 38.57573 | 19.92363 | 17676 ft | 366 kts | 315° |
| 2026-05-05 10:56 | 38.59388 | 19.90061 | 18188 ft | 369 kts | 315° |
| 2026-05-05 10:57 | 38.61217 | 19.87742 | 18657 ft | 372 kts | 315° |
| 2026-05-05 10:57 | 38.63056 | 19.85409 | 19124 ft | 373 kts | 315° |
| 2026-05-05 10:57 | 38.64903 | 19.83062 | 19603 ft | 375 kts | 315° |
| 2026-05-05 10:57 | 38.66757 | 19.80706 | 20090 ft | 376 kts | 315° |
| 2026-05-05 10:58 | 38.68616 | 19.78338 | 20572 ft | 378 kts | 315° |
| 2026-05-05 10:58 | 38.70505 | 19.75924 | 21045 ft | 379 kts | 315° |
| 2026-05-05 10:58 | 38.72377 | 19.73535 | 21498 ft | 381 kts | 315° |
| 2026-05-05 10:58 | 38.74255 | 19.71138 | 21930 ft | 382 kts | 315° |
| 2026-05-05 10:59 | 38.76144 | 19.68730 | 22349 ft | 384 kts | 315° |
| 2026-05-05 10:59 | 38.78040 | 19.66311 | 22760 ft | 386 kts | 315° |
| 2026-05-05 10:59 | 38.79944 | 19.63880 | 23184 ft | 387 kts | 316° |
| 2026-05-05 10:59 | 38.81857 | 19.61436 | 23575 ft | 389 kts | 316° |
| 2026-05-05 11:00 | 38.83777 | 19.58979 | 23939 ft | 391 kts | 316° |
| 2026-05-05 11:00 | 38.85704 | 19.56509 | 24271 ft | 392 kts | 315° |
| 2026-05-05 11:00 | 38.87636 | 19.54029 | 24614 ft | 394 kts | 315° |
| 2026-05-05 11:00 | 38.89573 | 19.51538 | 24950 ft | 395 kts | 315° |
| 2026-05-05 11:01 | 38.91516 | 19.49038 | 25268 ft | 396 kts | 315° |
| 2026-05-05 11:01 | 38.93465 | 19.46529 | 25600 ft | 397 kts | 315° |
| 2026-05-05 11:01 | 38.95419 | 19.44012 | 25920 ft | 399 kts | 315° |
| 2026-05-05 11:01 | 38.97382 | 19.41479 | 26260 ft | 400 kts | 315° |
| 2026-05-05 11:02 | 38.99344 | 19.38949 | 26595 ft | 401 kts | 315° |
| 2026-05-05 11:02 | 39.01321 | 19.36402 | 26937 ft | 402 kts | 315° |
| 2026-05-05 11:02 | 39.03295 | 19.33855 | 27272 ft | 403 kts | 315° |
| 2026-05-05 11:02 | 39.05269 | 19.31305 | 27747 ft | 401 kts | 315° |
| 2026-05-05 11:03 | 39.07226 | 19.28771 | 28253 ft | 398 kts | 315° |
| 2026-05-05 11:03 | 39.09168 | 19.26250 | 28749 ft | 395 kts | 315° |
| 2026-05-05 11:03 | 39.11099 | 19.23748 | 29263 ft | 393 kts | 315° |
| 2026-05-05 11:03 | 39.13020 | 19.21262 | 29769 ft | 390 kts | 315° |
| 2026-05-05 11:04 | 39.14926 | 19.18788 | 30260 ft | 388 kts | 314° |
| 2026-05-05 11:04 | 39.16819 | 19.16327 | 30673 ft | 386 kts | 314° |
| 2026-05-05 11:04 | 39.18705 | 19.13876 | 31069 ft | 385 kts | 314° |
| 2026-05-05 11:04 | 39.20589 | 19.11424 | 31449 ft | 384 kts | 314° |
| 2026-05-05 11:05 | 39.22457 | 19.08986 | 31833 ft | 383 kts | 314° |
| 2026-05-05 11:05 | 39.24328 | 19.06542 | 32212 ft | 381 kts | 314° |
| 2026-05-05 11:05 | 39.26212 | 19.04081 | 32597 ft | 380 kts | 314° |
| 2026-05-05 11:05 | 39.28047 | 19.01684 | 32984 ft | 379 kts | 314° |
| 2026-05-05 11:06 | 39.30036 | 18.99388 | 33346 ft | 380 kts | 321° |
| 2026-05-05 11:06 | 39.32199 | 18.97429 | 33718 ft | 379 kts | 323° |
| 2026-05-05 11:06 | 39.34367 | 18.95494 | 34068 ft | 379 kts | 323° |
| 2026-05-05 11:07 | 39.38748 | 18.91576 | 34149 ft | 390 kts | 323° |
| 2026-05-05 11:07 | 39.43256 | 18.87531 | 34143 ft | 397 kts | 323° |
| 2026-05-05 11:08 | 39.47796 | 18.83444 | 34141 ft | 398 kts | 323° |
| 2026-05-05 11:08 | 39.52334 | 18.79354 | 34142 ft | 397 kts | 323° |
| 2026-05-05 11:09 | 39.56868 | 18.75260 | 34143 ft | 396 kts | 323° |
| 2026-05-05 11:09 | 39.61389 | 18.71169 | 34149 ft | 396 kts | 323° |
| 2026-05-05 11:10 | 39.65903 | 18.67082 | 34153 ft | 395 kts | 323° |
| 2026-05-05 11:10 | 39.70413 | 18.63002 | 34154 ft | 395 kts | 323° |
| 2026-05-05 11:11 | 39.74914 | 18.58925 | 34152 ft | 394 kts | 323° |
| 2026-05-05 11:11 | 39.79403 | 18.54847 | 34155 ft | 393 kts | 323° |
| 2026-05-05 11:12 | 39.83880 | 18.50770 | 34158 ft | 392 kts | 323° |
| 2026-05-05 11:12 | 39.88346 | 18.46702 | 34155 ft | 391 kts | 323° |
| 2026-05-05 11:13 | 39.92072 | 18.43288 | 34156 ft | 390 kts | 322° |
| 2026-05-05 11:13 | 39.96510 | 18.39222 | 34147 ft | 390 kts | 322° |
| 2026-05-05 11:14 | 40.00938 | 18.35156 | 34142 ft | 389 kts | 322° |
| 2026-05-05 11:14 | 40.05360 | 18.31092 | 34135 ft | 389 kts | 322° |
| 2026-05-05 11:15 | 40.09777 | 18.27033 | 34132 ft | 388 kts | 322° |
| 2026-05-05 11:15 | 40.14190 | 18.22971 | 34128 ft | 387 kts | 322° |
| 2026-05-05 11:16 | 40.18589 | 18.18910 | 34131 ft | 387 kts | 322° |
| 2026-05-05 11:16 | 40.22984 | 18.14855 | 34129 ft | 386 kts | 322° |
| 2026-05-05 11:17 | 40.27369 | 18.10800 | 34125 ft | 386 kts | 322° |
| 2026-05-05 11:17 | 40.31742 | 18.06744 | 34123 ft | 385 kts | 322° |
| 2026-05-05 11:18 | 40.36146 | 18.02651 | 34122 ft | 385 kts | 322° |
| 2026-05-05 11:18 | 40.40490 | 17.98608 | 34121 ft | 385 kts | 322° |
| 2026-05-05 11:19 | 40.44890 | 17.94508 | 34105 ft | 385 kts | 321° |
| 2026-05-05 11:19 | 40.47785 | 17.91803 | 34102 ft | 386 kts | 321° |
| 2026-05-05 11:20 | 40.48521 | 17.91115 | 34099 ft | 386 kts | 321° |